createdAt,value
2018-02-15T00:01:50.260Z,9.10
2018-02-15T00:04:17.151Z,9.13
2018-02-15T00:06:44.376Z,8.45
2018-02-15T00:09:10.869Z,9.45
2018-02-15T00:11:37.352Z,9.00
2018-02-15T00:14:03.753Z,7.82
2018-02-15T00:16:30.220Z,7.75
2018-02-15T00:18:56.708Z,7.90
2018-02-15T00:21:23.230Z,7.80
2018-02-15T00:23:49.646Z,6.40
2018-02-15T00:26:16.512Z,6.78
2018-02-15T00:28:42.933Z,6.90
2018-02-15T00:31:10.141Z,6.93
2018-02-15T00:33:37.321Z,7.10
2018-02-15T00:36:03.740Z,7.87
2018-02-15T00:38:30.236Z,8.18
2018-02-15T00:40:57.000Z,7.80
2018-02-15T00:43:23.414Z,7.35
2018-02-15T00:45:49.868Z,8.27
2018-02-15T00:48:16.331Z,7.87
2018-02-15T00:50:42.814Z,6.82
2018-02-15T00:53:09.225Z,7.25
2018-02-15T00:55:35.736Z,7.05
2018-02-15T00:58:02.293Z,7.82
2018-02-15T01:00:28.775Z,7.47
2018-02-15T01:02:55.262Z,7.25
2018-02-15T01:05:21.804Z,6.45
2018-02-15T01:07:48.228Z,7.32
2018-02-15T01:10:15.962Z,7.87
2018-02-15T01:12:42.401Z,7.10
2018-02-15T01:15:08.821Z,6.12
2018-02-15T01:17:35.296Z,6.25
2018-02-15T01:20:01.839Z,5.82
2018-02-15T01:22:28.382Z,6.20
2018-02-15T01:24:54.937Z,5.90
2018-02-15T01:27:21.411Z,6.80
2018-02-15T01:29:47.847Z,7.60
2018-02-15T01:32:14.262Z,6.78
2018-02-15T01:34:40.647Z,6.60
2018-02-15T01:37:07.121Z,5.85
2018-02-15T01:39:34.010Z,5.60
2018-02-15T01:42:01.231Z,6.53
2018-02-15T01:44:27.693Z,6.28
2018-02-15T01:46:55.126Z,6.32
2018-02-15T01:49:21.603Z,6.05
2018-02-15T01:51:48.150Z,6.13
2018-02-15T01:54:14.949Z,5.90
2018-02-15T01:56:41.354Z,6.60
2018-02-15T01:59:08.608Z,5.45
2018-02-15T02:01:35.076Z,5.78
2018-02-15T02:04:01.540Z,5.55
2018-02-15T02:06:27.921Z,5.33
2018-02-15T02:08:54.404Z,6.12
2018-02-15T02:11:20.863Z,6.03
2018-02-15T02:13:47.323Z,5.68
2018-02-15T02:16:13.824Z,5.30
2018-02-15T02:18:40.347Z,4.87
2018-02-15T02:21:06.825Z,5.55
2018-02-15T02:23:33.321Z,4.87
2018-02-15T02:25:59.847Z,5.15
2018-02-15T02:28:27.047Z,4.97
2018-02-15T02:30:53.637Z,5.43
2018-02-15T02:33:20.066Z,5.20
2018-02-15T02:35:47.256Z,5.30
2018-02-15T02:38:13.714Z,4.70
2018-02-15T02:40:40.990Z,5.60
2018-02-15T02:43:07.419Z,4.75
2018-02-15T02:45:33.800Z,7.05
2018-02-15T02:48:00.680Z,4.82
2018-02-15T02:50:27.115Z,5.20
2018-02-15T02:52:54.319Z,5.03
2018-02-15T02:55:20.801Z,5.53
2018-02-15T02:57:47.240Z,4.57
2018-02-15T03:00:14.413Z,4.97
2018-02-15T03:02:41.769Z,5.60
2018-02-15T03:05:08.170Z,5.40
2018-02-15T03:07:34.674Z,4.30
2018-02-15T03:10:01.155Z,5.03
2018-02-15T03:12:27.553Z,5.07
2018-02-15T03:14:54.004Z,5.80
2018-02-15T03:17:20.529Z,4.65
2018-02-15T03:19:46.964Z,4.87
2018-02-15T03:22:13.430Z,4.75
2018-02-15T03:24:39.942Z,4.82
2018-02-15T03:27:06.384Z,4.55
2018-02-15T03:29:32.830Z,4.57
2018-02-15T03:31:59.309Z,4.72
2018-02-15T03:34:25.781Z,5.15
2018-02-15T03:36:52.281Z,5.45
2018-02-15T03:39:18.752Z,5.68
2018-02-15T03:41:45.915Z,5.13
2018-02-15T03:44:12.481Z,5.30
2018-02-15T03:46:39.000Z,4.87
2018-02-15T03:49:05.545Z,5.37
2018-02-15T03:51:32.753Z,5.28
2018-02-15T03:53:59.237Z,5.30
2018-02-15T03:56:26.440Z,5.68
2018-02-15T03:58:53.547Z,5.10
2018-02-15T04:01:20.830Z,5.45
2018-02-15T04:03:47.270Z,5.53
2018-02-15T04:06:13.776Z,5.22
2018-02-15T04:08:40.272Z,6.03
2018-02-15T04:11:07.445Z,4.95
2018-02-15T04:13:34.692Z,5.10
2018-02-15T04:16:01.211Z,4.97
2018-02-15T04:18:28.299Z,4.70
2018-02-15T04:20:54.720Z,4.85
2018-02-15T04:23:21.176Z,4.95
2018-02-15T04:25:47.657Z,5.45
2018-02-15T04:28:14.098Z,4.87
2018-02-15T04:30:41.330Z,5.37
2018-02-15T04:33:08.565Z,6.55
2018-02-15T04:35:35.020Z,4.10
2018-02-15T04:38:01.446Z,5.15
2018-02-15T04:40:27.824Z,5.95
2018-02-15T04:42:55.026Z,4.90
2018-02-15T04:45:21.580Z,5.40
2018-02-15T04:47:48.029Z,5.43
2018-02-15T04:50:14.413Z,4.85
2018-02-15T04:52:40.905Z,4.65
2018-02-15T04:55:07.415Z,5.78
2018-02-15T04:57:34.630Z,4.82
2018-02-15T05:00:01.081Z,5.55
2018-02-15T05:02:27.545Z,5.60
2018-02-15T05:04:53.973Z,5.00
2018-02-15T05:07:20.514Z,5.25
2018-02-15T05:09:46.992Z,5.55
2018-02-15T05:12:13.524Z,4.97
2018-02-15T05:14:40.082Z,6.00
2018-02-15T05:17:06.543Z,5.20
2018-02-15T05:19:33.006Z,5.07
2018-02-15T05:22:00.241Z,4.97
2018-02-15T05:24:26.668Z,4.80
2018-02-15T05:26:53.059Z,4.75
2018-02-15T05:29:19.588Z,5.35
2018-02-15T05:31:46.065Z,5.50
2018-02-15T05:34:12.492Z,4.70
2018-02-15T05:36:39.432Z,4.80
2018-02-15T05:39:05.866Z,5.17
2018-02-15T05:41:32.280Z,5.30
2018-02-15T05:43:58.860Z,4.97
2018-02-15T05:46:25.266Z,4.93
2018-02-15T05:48:51.713Z,4.20
2018-02-15T05:51:18.169Z,4.77
2018-02-15T05:53:44.721Z,5.07
2018-02-15T05:56:12.220Z,4.53
2018-02-15T05:58:38.677Z,5.32
2018-02-15T06:01:05.088Z,5.37
2018-02-15T06:03:31.633Z,4.75
2018-02-15T06:05:58.078Z,4.50
2018-02-15T06:08:24.565Z,4.82
2018-02-15T06:10:50.967Z,6.07
2018-02-15T06:13:17.772Z,5.47
2018-02-15T06:15:44.299Z,6.62
2018-02-15T06:18:11.506Z,4.78
2018-02-15T06:20:39.169Z,5.00
2018-02-15T06:23:05.588Z,5.65
2018-02-15T06:25:32.063Z,5.65
2018-02-15T06:27:58.608Z,5.68
2018-02-15T06:30:25.545Z,4.83
2018-02-15T06:32:51.979Z,5.75
2018-02-15T06:35:18.504Z,5.28
2018-02-15T06:37:45.897Z,5.57
2018-02-15T06:40:12.348Z,4.25
2018-02-15T06:42:38.902Z,5.40
2018-02-15T06:45:06.190Z,5.03
2018-02-15T06:47:33.418Z,4.20
2018-02-15T06:49:59.828Z,3.93
2018-02-15T06:52:26.258Z,4.00
2018-02-15T06:54:52.659Z,4.93
2018-02-15T06:57:19.118Z,4.33
2018-02-15T06:59:45.594Z,5.00
2018-02-15T07:02:13.174Z,4.20
2018-02-15T07:04:39.624Z,4.63
2018-02-15T07:07:06.679Z,4.47
2018-02-15T07:09:33.174Z,4.10
2018-02-15T07:11:59.591Z,4.60
2018-02-15T07:14:27.637Z,3.80
2018-02-15T07:16:55.122Z,3.80
2018-02-15T07:19:21.540Z,3.80
2018-02-15T07:21:48.141Z,3.93
2018-02-15T07:24:14.559Z,4.37
2018-02-15T07:26:41.755Z,3.90
2018-02-15T07:29:08.612Z,3.87
2018-02-15T07:34:08.132Z,4.30
2018-02-15T07:36:34.629Z,3.50
2018-02-15T07:39:01.156Z,4.13
2018-02-15T07:41:27.622Z,4.50
2018-02-15T07:43:53.981Z,3.47
2018-02-15T07:46:20.474Z,4.20
2018-02-15T07:48:47.904Z,3.77
2018-02-15T07:51:14.446Z,3.20
2018-02-15T07:53:41.009Z,3.63
2018-02-15T07:56:07.625Z,4.07
2018-02-15T07:58:34.081Z,3.90
2018-02-15T08:01:00.506Z,3.53
2018-02-15T08:03:27.024Z,2.70
2018-02-15T08:05:53.408Z,4.40
2018-02-15T08:08:19.873Z,3.37
2018-02-15T08:10:46.344Z,4.33
2018-02-15T08:13:12.787Z,4.03
2018-02-15T08:15:39.237Z,4.10
2018-02-15T08:18:05.697Z,4.47
2018-02-15T08:20:32.258Z,4.10
2018-02-15T08:23:00.259Z,4.63
2018-02-15T08:25:26.768Z,4.10
2018-02-15T08:27:53.332Z,4.20
2018-02-15T08:30:19.804Z,3.70
2018-02-15T08:32:47.254Z,3.97
2018-02-15T08:35:13.720Z,3.43
2018-02-15T08:37:40.977Z,4.00
2018-02-15T08:40:07.767Z,4.00
2018-02-15T08:42:34.237Z,3.80
2018-02-15T08:45:00.797Z,4.67
2018-02-15T08:47:27.667Z,6.10
2018-02-15T08:49:54.088Z,4.00
2018-02-15T08:52:20.553Z,4.27
2018-02-15T08:54:47.439Z,4.77
2018-02-15T08:57:14.668Z,4.87
2018-02-15T08:59:41.144Z,3.60
2018-02-15T09:02:07.640Z,4.57
2018-02-15T09:04:34.145Z,4.20
2018-02-15T09:07:00.828Z,4.10
2018-02-15T09:09:28.013Z,5.37
2018-02-15T09:11:54.467Z,5.37
2018-02-15T09:14:20.895Z,4.60
2018-02-15T09:16:47.376Z,4.63
2018-02-15T09:19:14.555Z,4.63
2018-02-15T09:21:41.004Z,6.43
2018-02-15T09:24:07.480Z,3.87
2018-02-15T09:26:35.389Z,5.00
2018-02-15T09:29:03.690Z,6.07
2018-02-15T09:31:30.263Z,5.50
2018-02-15T09:33:56.648Z,4.73
2018-02-15T09:36:23.131Z,4.00
2018-02-15T09:38:49.597Z,3.97
2018-02-15T09:41:16.826Z,6.03
2018-02-15T09:43:44.026Z,4.93
2018-02-15T09:46:10.525Z,3.50
2018-02-15T09:48:36.988Z,4.70
2018-02-15T09:51:03.404Z,3.47
2018-02-15T09:53:30.572Z,4.03
2018-02-15T09:55:57.038Z,5.10
2018-02-15T09:58:23.477Z,3.70
2018-02-15T10:00:50.001Z,4.00
2018-02-15T10:03:16.393Z,4.33
2018-02-15T10:05:43.633Z,3.90
2018-02-15T10:08:10.076Z,4.17
2018-02-15T10:10:36.529Z,4.00
2018-02-15T10:13:03.356Z,4.57
2018-02-15T10:15:29.912Z,4.10
2018-02-15T10:17:56.272Z,3.83
2018-02-15T10:20:22.852Z,3.80
2018-02-15T10:22:50.070Z,4.50
2018-02-15T10:25:16.448Z,4.10
2018-02-15T10:27:44.102Z,4.70
2018-02-15T10:30:10.567Z,4.13
2018-02-15T10:32:37.005Z,5.50
2018-02-15T10:35:04.170Z,5.00
2018-02-15T10:37:30.654Z,5.77
2018-02-15T10:39:57.834Z,4.77
2018-02-15T10:42:24.396Z,5.43
2018-02-15T10:44:57.806Z,5.90
2018-02-15T10:47:24.270Z,5.47
2018-02-15T10:49:51.749Z,5.20
2018-02-15T10:52:18.233Z,5.87
2018-02-15T10:54:44.853Z,5.47
2018-02-15T10:57:11.366Z,5.13
2018-02-15T10:59:37.840Z,4.73
2018-02-15T11:02:10.452Z,5.30
2018-02-15T11:04:37.832Z,5.27
2018-02-15T11:07:04.416Z,5.57
2018-02-15T11:09:30.965Z,4.57
2018-02-15T11:11:58.403Z,4.73
2018-02-15T11:14:24.882Z,4.60
2018-02-15T11:16:51.367Z,5.07
2018-02-15T11:19:17.869Z,5.53
2018-02-15T11:21:44.281Z,4.73
2018-02-15T11:24:10.804Z,5.00
2018-02-15T11:26:38.325Z,5.07
2018-02-15T11:29:04.768Z,4.50
2018-02-15T11:31:31.316Z,4.77
2018-02-15T11:33:57.794Z,4.97
2018-02-15T11:36:24.331Z,3.97
2018-02-15T11:38:50.791Z,4.83
2018-02-15T11:41:17.616Z,4.97
2018-02-15T11:43:44.066Z,4.97
2018-02-15T11:46:10.495Z,5.93
2018-02-15T11:48:37.345Z,4.97
2018-02-15T11:51:03.889Z,4.33
2018-02-15T11:53:30.328Z,4.40
2018-02-15T11:55:57.517Z,3.83
2018-02-15T11:58:24.644Z,4.40
2018-02-15T12:00:51.246Z,4.83
2018-02-15T12:03:18.153Z,4.33
2018-02-15T12:05:44.861Z,4.83
2018-02-15T12:08:11.481Z,4.40
2018-02-15T12:10:38.822Z,4.90
2018-02-15T12:13:05.284Z,5.77
2018-02-15T12:15:31.780Z,4.57
2018-02-15T12:17:58.241Z,5.40
2018-02-15T12:20:24.718Z,4.87
2018-02-15T12:22:51.216Z,5.57
2018-02-15T12:25:17.802Z,3.70
2018-02-15T12:27:45.138Z,4.20
2018-02-15T12:30:12.301Z,5.10
2018-02-15T12:32:38.932Z,3.80
2018-02-15T12:35:05.385Z,4.57
2018-02-15T12:37:31.826Z,5.87
2018-02-15T12:39:58.280Z,6.07
2018-02-15T12:42:24.744Z,5.53
2018-02-15T12:44:51.200Z,4.47
2018-02-15T12:47:18.536Z,5.20
2018-02-15T12:49:45.211Z,5.40
2018-02-15T12:52:12.316Z,6.00
2018-02-15T12:54:39.259Z,7.80
2018-02-15T12:57:06.614Z,7.60
2018-02-15T12:59:33.109Z,6.57
2018-02-15T13:01:59.909Z,7.67
2018-02-15T13:04:26.406Z,6.37
2018-02-15T13:06:52.850Z,8.23
2018-02-15T13:09:19.387Z,8.83
2018-02-15T13:11:46.625Z,9.07
2018-02-15T13:14:13.057Z,8.17
2018-02-15T13:19:47.941Z,7.03
2018-02-15T13:22:26.664Z,7.90
2018-02-15T13:24:53.141Z,8.13
2018-02-15T13:30:26.311Z,8.47
2018-02-15T13:32:52.781Z,9.13
2018-02-15T13:35:19.336Z,8.83
2018-02-15T13:37:45.794Z,8.70
2018-02-15T13:40:12.333Z,8.60
2018-02-15T13:42:38.848Z,8.33
2018-02-15T13:45:05.453Z,8.87
2018-02-15T13:47:32.026Z,8.57
2018-02-15T13:49:58.504Z,9.63
2018-02-15T13:52:25.053Z,9.80
2018-02-15T13:54:51.568Z,9.50
2018-02-15T13:57:17.973Z,9.90
2018-02-15T13:59:44.638Z,9.33
2018-02-15T14:02:11.128Z,9.33
2018-02-15T14:04:37.632Z,9.53
2018-02-15T14:07:04.274Z,10.10
2018-02-15T14:09:30.786Z,13.00
2018-02-15T14:11:57.299Z,7.83
2018-02-15T14:14:23.724Z,8.47
2018-02-15T14:16:50.709Z,8.67
2018-02-15T14:19:17.245Z,8.17
2018-02-15T14:21:44.790Z,8.77
2018-02-15T14:24:11.337Z,9.13
2018-02-15T14:26:37.776Z,8.60
2018-02-15T14:29:04.305Z,6.87
2018-02-15T14:31:31.663Z,8.87
2018-02-15T14:33:58.148Z,7.87
2018-02-15T14:36:24.715Z,7.80
2018-02-15T14:38:51.965Z,7.12
2018-02-15T14:41:18.465Z,7.78
2018-02-15T14:43:45.089Z,7.28
2018-02-15T14:46:11.648Z,7.43
2018-02-15T14:48:38.078Z,6.93
2018-02-15T14:51:04.533Z,7.37
2018-02-15T14:53:31.065Z,6.40
2018-02-15T14:55:58.304Z,8.38
2018-02-15T14:58:32.648Z,8.97
2018-02-15T15:00:59.029Z,9.53
2018-02-15T15:03:26.219Z,8.90
2018-02-15T15:05:52.748Z,9.75
2018-02-15T15:08:20.069Z,8.33
2018-02-15T15:10:46.508Z,7.80
2018-02-15T15:13:13.008Z,8.95
2018-02-15T15:15:39.519Z,7.95
2018-02-15T15:18:06.015Z,9.85
2018-02-15T15:20:33.406Z,11.07
2018-02-15T15:23:00.028Z,12.27
2018-02-15T15:25:26.737Z,11.20
2018-02-15T15:27:53.870Z,10.60
2018-02-15T15:30:20.262Z,31.08
2018-02-15T15:32:46.722Z,10.80
2018-02-15T15:35:13.188Z,10.87
2018-02-15T15:37:39.642Z,11.00
2018-02-15T15:40:06.769Z,9.80
2018-02-15T15:42:33.663Z,9.43
2018-02-15T15:45:00.121Z,9.35
2018-02-15T15:47:27.404Z,9.48
2018-02-15T15:49:53.886Z,7.45
2018-02-15T15:52:20.365Z,11.82
2018-02-15T15:54:47.769Z,8.52
2018-02-15T15:57:15.106Z,8.77
2018-02-15T15:59:41.558Z,8.02
2018-02-15T16:02:07.948Z,7.17
2018-02-15T16:04:34.463Z,6.90
2018-02-15T16:07:01.630Z,7.73
2018-02-15T16:09:28.076Z,7.13
2018-02-15T16:11:55.453Z,7.40
2018-02-15T16:14:21.924Z,6.80
2018-02-15T16:16:48.421Z,6.33
2018-02-15T16:19:15.272Z,6.15
2018-02-15T16:21:41.698Z,5.90
2018-02-15T16:24:08.144Z,6.25
2018-02-15T16:26:35.059Z,6.50
2018-02-15T16:29:02.293Z,6.28
2018-02-15T16:31:29.391Z,6.47
2018-02-15T16:34:02.741Z,6.10
2018-02-15T16:36:29.227Z,6.73
2018-02-15T16:38:56.823Z,6.32
2018-02-15T16:41:23.963Z,5.43
2018-02-15T16:43:50.373Z,5.90
2018-02-15T16:46:16.796Z,5.43
2018-02-15T16:48:43.697Z,6.37
2018-02-15T16:51:10.190Z,6.32
2018-02-15T16:53:37.258Z,5.35
2018-02-15T16:56:04.991Z,5.30
2018-02-15T16:58:31.464Z,6.20
2018-02-15T17:00:57.951Z,6.10
2018-02-15T17:03:24.832Z,6.07
2018-02-15T17:05:51.270Z,5.70
2018-02-15T17:08:17.736Z,5.30
2018-02-15T17:10:44.277Z,5.05
2018-02-15T17:13:11.600Z,5.70
2018-02-15T17:15:38.040Z,5.12
2018-02-15T17:18:07.820Z,6.30
2018-02-15T17:20:34.381Z,4.87
2018-02-15T17:23:00.924Z,5.15
2018-02-15T17:25:27.908Z,5.50
2018-02-15T17:27:55.163Z,6.07
2018-02-15T17:30:21.589Z,5.47
2018-02-15T17:32:48.098Z,6.18
2018-02-15T17:35:14.553Z,6.28
2018-02-15T17:37:41.000Z,6.03
2018-02-15T17:40:08.309Z,5.20
2018-02-15T17:42:34.832Z,5.47
2018-02-15T17:45:01.287Z,6.87
2018-02-15T17:47:27.938Z,5.15
2018-02-15T17:49:54.330Z,5.70
2018-02-15T17:52:20.820Z,5.10
2018-02-15T17:54:48.548Z,5.05
2018-02-15T17:57:14.992Z,5.75
2018-02-15T17:59:41.482Z,5.30
2018-02-15T18:02:08.253Z,4.75
2018-02-15T18:04:34.653Z,5.22
2018-02-15T18:07:01.040Z,5.60
2018-02-15T18:09:27.626Z,5.68
2018-02-15T18:11:54.141Z,5.57
2018-02-15T18:14:21.336Z,5.80
2018-02-15T18:16:47.840Z,5.75
2018-02-15T18:19:14.232Z,5.37
2018-02-15T18:21:40.632Z,6.82
2018-02-15T18:24:07.094Z,5.80
2018-02-15T18:26:33.464Z,6.43
2018-02-15T18:28:59.986Z,7.05
2018-02-15T18:31:27.243Z,6.78
2018-02-15T18:33:53.685Z,7.53
2018-02-15T18:36:20.902Z,6.87
2018-02-15T18:38:47.482Z,7.05
2018-02-15T18:41:13.944Z,7.28
2018-02-15T18:43:40.355Z,6.87
2018-02-15T18:46:06.946Z,6.90
2018-02-15T18:48:33.441Z,7.18
2018-02-15T18:50:59.937Z,7.00
2018-02-15T18:53:27.276Z,8.13
2018-02-15T18:55:53.653Z,7.60
2018-02-15T18:58:20.019Z,8.43
2018-02-15T19:00:47.965Z,9.23
2018-02-15T19:03:14.447Z,7.90
2018-02-15T19:05:40.935Z,8.77
2018-02-15T19:08:07.526Z,7.30
2018-02-15T19:10:34.752Z,8.93
2018-02-15T19:13:01.285Z,7.47
2018-02-15T19:15:27.821Z,7.90
2018-02-15T19:17:55.173Z,7.85
2018-02-15T19:20:21.640Z,9.05
2018-02-15T19:22:48.048Z,8.00
2018-02-15T19:25:14.459Z,7.67
2018-02-15T19:27:41.320Z,7.28
2018-02-15T19:30:07.928Z,8.60
2018-02-15T19:32:35.556Z,9.80
2018-02-15T19:35:02.099Z,10.95
2018-02-15T19:37:29.231Z,7.53
2018-02-15T19:39:55.632Z,9.63
2018-02-15T19:42:22.276Z,7.95
2018-02-15T19:44:48.801Z,8.07
2018-02-15T19:47:15.193Z,7.93
2018-02-15T19:49:42.454Z,7.35
2018-02-15T19:52:08.962Z,8.40
2018-02-15T19:54:35.405Z,9.10
2018-02-15T19:57:01.827Z,8.35
2018-02-15T19:59:29.050Z,7.97
2018-02-15T20:01:55.571Z,8.13
2018-02-15T20:04:22.042Z,8.10
2018-02-15T20:06:48.528Z,8.25
2018-02-15T20:09:15.008Z,7.53
2018-02-15T20:11:42.157Z,6.75
2018-02-15T20:14:08.611Z,8.07
2018-02-15T20:16:35.096Z,7.70
2018-02-15T20:19:01.601Z,8.52
2018-02-15T20:21:28.010Z,7.87
2018-02-15T20:23:54.775Z,7.15
2018-02-15T20:26:27.328Z,8.75
2018-02-15T20:28:53.763Z,6.70
2018-02-15T20:31:20.193Z,7.97
2018-02-15T20:33:46.676Z,6.93
2018-02-15T20:36:13.181Z,7.80
2018-02-15T20:41:43.771Z,7.80
2018-02-15T20:44:10.200Z,7.65
2018-02-15T20:46:36.634Z,8.02
2018-02-15T20:49:03.130Z,7.85
2018-02-15T20:51:36.416Z,8.45
2018-02-15T20:54:09.529Z,8.18
2018-02-15T20:56:35.993Z,8.25
2018-02-15T20:59:02.871Z,8.68
2018-02-15T21:01:29.316Z,9.60
2018-02-15T21:03:55.821Z,9.52
2018-02-15T21:06:22.334Z,8.30
2018-02-15T21:08:48.844Z,8.90
2018-02-15T21:11:16.085Z,8.25
2018-02-15T21:13:42.526Z,8.52
2018-02-15T21:16:09.789Z,8.02
2018-02-15T21:18:36.330Z,7.93
2018-02-15T21:21:02.779Z,7.93
2018-02-15T21:23:29.331Z,7.53
2018-02-15T21:25:55.796Z,7.87
2018-02-15T21:28:23.006Z,7.82
2018-02-15T21:30:49.409Z,7.57
2018-02-15T21:33:16.218Z,7.37
2018-02-15T21:35:42.622Z,8.07
2018-02-15T21:38:09.017Z,7.50
2018-02-15T21:40:38.498Z,7.22
2018-02-15T21:43:08.610Z,7.53
2018-02-15T21:45:35.424Z,7.47
2018-02-15T21:48:01.955Z,7.03
2018-02-15T21:50:28.371Z,7.82
2018-02-15T21:52:54.849Z,6.80
2018-02-15T21:55:21.584Z,6.45
2018-02-15T21:57:49.286Z,6.73
2018-02-15T22:00:16.460Z,6.78
2018-02-15T22:02:43.146Z,7.87
2018-02-15T22:05:09.619Z,6.43
2018-02-15T22:07:37.633Z,7.03
2018-02-15T22:10:04.367Z,6.15
2018-02-15T22:12:30.870Z,6.68
2018-02-15T22:14:58.070Z,6.03
2018-02-15T22:17:24.923Z,6.30
2018-02-15T22:19:51.684Z,6.47
2018-02-15T22:22:18.086Z,6.80
2018-02-15T22:24:45.159Z,6.93
2018-02-15T22:27:11.635Z,7.22
2018-02-15T22:29:38.103Z,7.77
2018-02-15T22:32:04.957Z,7.35
2018-02-15T22:34:31.451Z,7.05
2018-02-15T22:36:57.944Z,7.10
2018-02-15T22:39:24.609Z,6.67
2018-02-15T22:41:51.102Z,5.97
2018-02-15T22:44:17.664Z,6.95
2018-02-15T22:46:44.814Z,6.70
2018-02-15T22:49:11.231Z,7.05
2018-02-15T22:51:37.657Z,8.00
2018-02-15T22:54:04.196Z,7.15
2018-02-15T22:56:30.679Z,7.30
2018-02-15T22:58:57.096Z,7.25
2018-02-15T23:01:23.743Z,7.68
2018-02-15T23:03:50.173Z,7.27
2018-02-15T23:06:16.621Z,7.25
2018-02-15T23:08:43.510Z,7.43
2018-02-15T23:11:09.991Z,7.43
2018-02-15T23:13:36.582Z,7.50
2018-02-15T23:16:03.425Z,7.90
2018-02-15T23:18:30.006Z,6.65
2018-02-15T23:20:56.599Z,8.10
2018-02-15T23:23:23.083Z,7.87
2018-02-15T23:25:49.832Z,7.93
2018-02-15T23:28:16.475Z,6.67
2018-02-15T23:30:43.462Z,7.50
2018-02-15T23:33:09.955Z,7.80
2018-02-15T23:35:36.430Z,7.40
2018-02-15T23:38:04.116Z,7.17
2018-02-15T23:40:31.386Z,8.07
2018-02-15T23:42:57.923Z,7.00
2018-02-15T23:45:24.436Z,7.87
2018-02-15T23:47:50.999Z,7.25
2018-02-15T23:50:17.625Z,7.18
2018-02-15T23:52:44.901Z,6.83
2018-02-15T23:55:11.493Z,7.30
2018-02-15T23:57:37.996Z,6.83
